Skip to content
You are here: Gozo Weather
Gozo Weather Station for the very latest live weather conditions from Gozo and Malta
 
 TIME   TEMPERATURE   WINDSPEED   DIRECTION   HUMIDITY   BAROMETER   RAINFALL 
6:35 24.7°C (76.5°F) 16.7 kmh (10.4 mph) W 59% 1007.0hPa (29.74 inHg) 0.0mm (0.00 in.)
5:35 25.2°C (77.4 °F) 18.5 kmh (11.5 mph) W 57% 1007.0hPa (29.74 inHg) 0.0mm (0.00 in.)
4:35 25.4°C (77.7 °F) 22.2 kmh (13.8 mph) NNW 55% 1006.2hPa (29.71 inHg) 0.0mm (0.00 in.)
3:35 25.6°C (78.1 °F) 18.5 kmh (11.5 mph) WSW 52% 1007.0hPa (29.74 inHg) 0.0mm (0.00 in.)
2:35 25.6°C (78.1 °F) 22.2 kmh (13.8 mph) NNW 55% 1007.0hPa (29.74 inHg) 0.0mm (0.00 in.)
1:35 25.5°C (77.9 °F) 27.8 kmh (17.3 mph) N 57% 1007.0hPa (29.74 inHg) 0.0mm (0.00 in.)
12:35 26.3°C (79.3 °F) 16.7 kmh (10.4 mph) WSW 53% 1007.0hPa (29.74 inHg) 0.0mm (0.00 in.)
11:35 26.0°C (78.8 °F) 20.4 kmh (12.7 mph) W 53% 1007.0hPa (29.74 inHg) 0.0mm (0.00 in.)
10:35 25.6°C (78.1 °F) 20.4 kmh (12.7 mph) WNW 56% 1007.0hPa (29.74 inHg) 0.0mm (0.00 in.)
9:35 24.9°C (76.8 °F) 18.5 kmh (11.5 mph) WNW 54% 1007.0hPa (29.74 inHg) 0.0mm (0.00 in.)
8:27 24.4°C (75.9 °F) 18.5 kmh (11.5 mph) NW 56% 1007.0hPa (29.74 inHg) 0.0mm (0.00 in.)
7:27 22.7°C (72.9 °F) 13.0 kmh (8.1 mph) WNW 56% 1007.0hPa (29.74 inHg) 0.0mm (0.00 in.)
6:27 22.8°C (73.0 °F) 27.8 kmh (17.3 mph) N 63% 1006.0hPa (29.71 inHg) 0.0mm (0.00 in.)
5:27 23.0°C (73.4 °F) 13.0 kmh (8.1 mph) NW 62% 1006.0hPa (29.71 inHg) 0.0mm (0.00 in.)
4:27 23.0°C (73.4 °F) 16.7 kmh (10.4 mph) SSW 61% 1007.0hPa (29.74 inHg) 0.0mm (0.00 in.)
3:27 23.2°C (73.8 °F) 13.0 kmh (8.1 mph) NW 60% 1006.0hPa (29.71 inHg) 0.0mm (0.00 in.)
2:27 23.3°C (73.9 °F) 3.7 kmh (2.3 mph) NNW 59% 1007.0hPa (29.74 inHg) 0.0mm (0.00 in.)
1:27 23.5°C (74.3 °F) 14.8 kmh (9.2 mph) WNW 57% 1007.0hPa (29.74 inHg) 0.0mm (0.00 in.)
12:27 23.7°C (74.7 °F) 14.8 kmh (9.2 mph) WNW 54% 1008.0hPa (29.77 inHg) 0.0mm (0.00 in.)
11:24 23.9°C (75.0 °F) 20.4 kmh (12.7 mph) SSW 50% 1008.0hPa (29.77 inHg) 0.0mm (0.00 in.)
10:24 24.5°C (76.1 °F) 22.2 kmh (13.8 mph) NNW 55% 1008.0hPa (29.77 inHg) 0.0mm (0.00 in.)
9:24 25.0°C (77.0 °F) 18.5 kmh (11.5 mph) WSW 54% 1008.0hPa (29.77 inHg) 0.0mm (0.00 in.)
8:24 25.5°C (77.9 °F) 22.2 kmh (13.8 mph) NNW 57% 1008.0hPa (29.77 inHg) 0.0mm (0.00 in.)
7:24 25.9°C (78.6 °F) 22.2 kmh (13.8 mph) NNW 53% 1008.0hPa (29.77 inHg) 0.0mm (0.00 in.)

You need the latest version of Flash Player to view some of our content.


Why not download and install the latest version now?
It will only take you a moment and will ensure that you can view all the latest flash designed websites.

Translate this page

Animated Satellite

Click per aprire http://www.gozo.ws/Animation.php
copyright 2014 EUMETSAT

European Lightning Activity


Please click image for full size

Sponsored Links